sensor_id;sensor_type;location;lat;lon;timestamp;P1;durP1;ratioP1;P2;durP2;ratioP2
72235;SDS011;60146;52.498;13.462;2023-07-31T00:01:10;3.17;;;1.20;;
72235;SDS011;60146;52.498;13.462;2023-07-31T00:03:36;4.00;;;1.20;;
72235;SDS011;60146;52.498;13.462;2023-07-31T00:06:01;3.73;;;1.23;;
72235;SDS011;60146;52.498;13.462;2023-07-31T00:08:26;3.93;;;1.43;;
72235;SDS011;60146;52.498;13.462;2023-07-31T00:10:52;4.47;;;1.17;;
72235;SDS011;60146;52.498;13.462;2023-07-31T00:13:18;4.00;;;1.30;;
72235;SDS011;60146;52.498;13.462;2023-07-31T00:15:43;2.50;;;1.30;;
72235;SDS011;60146;52.498;13.462;2023-07-31T00:18:09;4.93;;;1.30;;
72235;SDS011;60146;52.498;13.462;2023-07-31T00:20:34;2.23;;;1.10;;
72235;SDS011;60146;52.498;13.462;2023-07-31T00:22:59;3.10;;;1.30;;
72235;SDS011;60146;52.498;13.462;2023-07-31T00:25:24;2.90;;;1.30;;
72235;SDS011;60146;52.498;13.462;2023-07-31T00:27:50;2.10;;;1.03;;
72235;SDS011;60146;52.498;13.462;2023-07-31T00:30:15;4.17;;;1.30;;
72235;SDS011;60146;52.498;13.462;2023-07-31T00:32:41;5.73;;;1.37;;
72235;SDS011;60146;52.498;13.462;2023-07-31T00:35:06;2.80;;;1.23;;
72235;SDS011;60146;52.498;13.462;2023-07-31T00:37:32;3.43;;;1.90;;
72235;SDS011;60146;52.498;13.462;2023-07-31T00:39:57;3.60;;;1.57;;
72235;SDS011;60146;52.498;13.462;2023-07-31T00:42:24;3.63;;;1.63;;
72235;SDS011;60146;52.498;13.462;2023-07-31T00:44:50;4.40;;;1.70;;
72235;SDS011;60146;52.498;13.462;2023-07-31T00:47:15;2.87;;;1.40;;
72235;SDS011;60146;52.498;13.462;2023-07-31T00:49:40;3.07;;;1.50;;
72235;SDS011;60146;52.498;13.462;2023-07-31T00:52:06;1.70;;;1.30;;
72235;SDS011;60146;52.498;13.462;2023-07-31T00:54:32;4.37;;;1.37;;
72235;SDS011;60146;52.498;13.462;2023-07-31T00:56:58;4.00;;;1.47;;
72235;SDS011;60146;52.498;13.462;2023-07-31T00:59:24;3.57;;;1.30;;
72235;SDS011;60146;52.498;13.462;2023-07-31T01:01:50;2.70;;;1.47;;
72235;SDS011;60146;52.498;13.462;2023-07-31T01:04:15;3.80;;;1.60;;
72235;SDS011;60146;52.498;13.462;2023-07-31T01:12:15;4.97;;;1.50;;
72235;SDS011;60146;52.498;13.462;2023-07-31T01:14:52;2.87;;;1.47;;
72235;SDS011;60146;52.498;13.462;2023-07-31T01:17:36;3.73;;;1.50;;
72235;SDS011;60146;52.498;13.462;2023-07-31T01:20:02;4.60;;;1.47;;
72235;SDS011;60146;52.498;13.462;2023-07-31T01:28:07;2.37;;;1.50;;
72235;SDS011;60146;52.498;13.462;2023-07-31T01:30:46;3.27;;;1.63;;
72235;SDS011;60146;52.498;13.462;2023-07-31T01:33:14;3.40;;;1.50;;
72235;SDS011;60146;52.498;13.462;2023-07-31T01:35:42;4.53;;;1.70;;
72235;SDS011;60146;52.498;13.462;2023-07-31T01:38:09;4.17;;;1.67;;
72235;SDS011;60146;52.498;13.462;2023-07-31T01:40:35;5.07;;;1.70;;
72235;SDS011;60146;52.498;13.462;2023-07-31T01:43:00;4.87;;;1.60;;
72235;SDS011;60146;52.498;13.462;2023-07-31T01:45:26;4.90;;;1.50;;
72235;SDS011;60146;52.498;13.462;2023-07-31T01:47:51;3.93;;;1.67;;
72235;SDS011;60146;52.498;13.462;2023-07-31T01:50:17;2.90;;;1.57;;
72235;SDS011;60146;52.498;13.462;2023-07-31T01:52:42;3.43;;;1.77;;
72235;SDS011;60146;52.498;13.462;2023-07-31T01:55:07;4.43;;;1.60;;
72235;SDS011;60146;52.498;13.462;2023-07-31T01:57:33;5.07;;;1.90;;
72235;SDS011;60146;52.498;13.462;2023-07-31T01:59:58;3.93;;;1.57;;
72235;SDS011;60146;52.498;13.462;2023-07-31T02:02:24;4.87;;;1.80;;
72235;SDS011;60146;52.498;13.462;2023-07-31T02:04:49;6.20;;;1.80;;
72235;SDS011;60146;52.498;13.462;2023-07-31T02:07:15;7.70;;;1.90;;
72235;SDS011;60146;52.498;13.462;2023-07-31T02:09:40;4.60;;;2.00;;
72235;SDS011;60146;52.498;13.462;2023-07-31T02:12:05;2.97;;;1.60;;
72235;SDS011;60146;52.498;13.462;2023-07-31T02:14:33;3.63;;;1.70;;
72235;SDS011;60146;52.498;13.462;2023-07-31T02:16:59;7.07;;;1.50;;
72235;SDS011;60146;52.498;13.462;2023-07-31T02:19:24;2.83;;;1.77;;
72235;SDS011;60146;52.498;13.462;2023-07-31T02:21:49;6.83;;;1.87;;
72235;SDS011;60146;52.498;13.462;2023-07-31T02:24:15;1.90;;;1.40;;
72235;SDS011;60146;52.498;13.462;2023-07-31T02:26:40;4.80;;;1.60;;
72235;SDS011;60146;52.498;13.462;2023-07-31T02:29:07;5.07;;;1.80;;
72235;SDS011;60146;52.498;13.462;2023-07-31T02:31:33;4.00;;;1.83;;
72235;SDS011;60146;52.498;13.462;2023-07-31T02:33:58;3.57;;;1.73;;
72235;SDS011;60146;52.498;13.462;2023-07-31T02:36:23;4.67;;;2.27;;
72235;SDS011;60146;52.498;13.462;2023-07-31T02:38:49;3.03;;;1.80;;
72235;SDS011;60146;52.498;13.462;2023-07-31T02:41:14;3.53;;;1.83;;
72235;SDS011;60146;52.498;13.462;2023-07-31T02:43:39;4.40;;;1.80;;
72235;SDS011;60146;52.498;13.462;2023-07-31T02:46:05;8.23;;;1.90;;
72235;SDS011;60146;52.498;13.462;2023-07-31T02:48:30;4.03;;;1.80;;
72235;SDS011;60146;52.498;13.462;2023-07-31T02:50:55;4.60;;;1.80;;
72235;SDS011;60146;52.498;13.462;2023-07-31T02:53:21;4.70;;;2.07;;
72235;SDS011;60146;52.498;13.462;2023-07-31T02:55:48;4.50;;;2.00;;
72235;SDS011;60146;52.498;13.462;2023-07-31T02:58:13;6.37;;;1.83;;
72235;SDS011;60146;52.498;13.462;2023-07-31T03:00:41;6.97;;;2.57;;
72235;SDS011;60146;52.498;13.462;2023-07-31T03:03:10;4.07;;;2.03;;
72235;SDS011;60146;52.498;13.462;2023-07-31T03:05:36;5.63;;;2.20;;
72235;SDS011;60146;52.498;13.462;2023-07-31T03:08:01;4.43;;;2.30;;
72235;SDS011;60146;52.498;13.462;2023-07-31T03:10:26;5.57;;;2.30;;
72235;SDS011;60146;52.498;13.462;2023-07-31T03:12:52;6.57;;;2.67;;
72235;SDS011;60146;52.498;13.462;2023-07-31T03:15:17;4.57;;;2.50;;
72235;SDS011;60146;52.498;13.462;2023-07-31T03:17:42;4.90;;;2.37;;
72235;SDS011;60146;52.498;13.462;2023-07-31T03:20:08;11.93;;;3.27;;
72235;SDS011;60146;52.498;13.462;2023-07-31T03:22:34;6.80;;;2.67;;
72235;SDS011;60146;52.498;13.462;2023-07-31T03:25:00;7.03;;;2.80;;
72235;SDS011;60146;52.498;13.462;2023-07-31T03:27:26;5.83;;;2.90;;
72235;SDS011;60146;52.498;13.462;2023-07-31T03:29:51;8.27;;;3.07;;
72235;SDS011;60146;52.498;13.462;2023-07-31T03:32:17;7.23;;;2.93;;
72235;SDS011;60146;52.498;13.462;2023-07-31T03:34:42;6.17;;;2.60;;
72235;SDS011;60146;52.498;13.462;2023-07-31T03:37:07;8.87;;;2.93;;
72235;SDS011;60146;52.498;13.462;2023-07-31T03:39:34;5.43;;;2.70;;
72235;SDS011;60146;52.498;13.462;2023-07-31T03:42:00;7.37;;;2.77;;
72235;SDS011;60146;52.498;13.462;2023-07-31T03:44:25;6.63;;;3.20;;
72235;SDS011;60146;52.498;13.462;2023-07-31T03:46:50;9.23;;;2.70;;
72235;SDS011;60146;52.498;13.462;2023-07-31T03:49:15;4.53;;;2.70;;
72235;SDS011;60146;52.498;13.462;2023-07-31T03:51:41;6.40;;;2.80;;
72235;SDS011;60146;52.498;13.462;2023-07-31T03:54:06;8.07;;;2.77;;
72235;SDS011;60146;52.498;13.462;2023-07-31T03:56:32;6.47;;;2.77;;
72235;SDS011;60146;52.498;13.462;2023-07-31T03:58:58;6.13;;;2.53;;
72235;SDS011;60146;52.498;13.462;2023-07-31T04:01:23;6.13;;;2.80;;
72235;SDS011;60146;52.498;13.462;2023-07-31T04:03:49;6.87;;;3.00;;
72235;SDS011;60146;52.498;13.462;2023-07-31T04:06:14;4.03;;;2.63;;
72235;SDS011;60146;52.498;13.462;2023-07-31T04:08:43;5.70;;;2.80;;
72235;SDS011;60146;52.498;13.462;2023-07-31T04:11:09;5.80;;;3.10;;
72235;SDS011;60146;52.498;13.462;2023-07-31T04:13:34;4.03;;;2.40;;
72235;SDS011;60146;52.498;13.462;2023-07-31T04:15:59;5.47;;;2.80;;
72235;SDS011;60146;52.498;13.462;2023-07-31T04:18:25;6.90;;;3.17;;
72235;SDS011;60146;52.498;13.462;2023-07-31T04:20:51;8.03;;;3.20;;
72235;SDS011;60146;52.498;13.462;2023-07-31T04:23:16;5.93;;;3.23;;
72235;SDS011;60146;52.498;13.462;2023-07-31T04:25:41;8.97;;;3.17;;
72235;SDS011;60146;52.498;13.462;2023-07-31T04:28:07;6.00;;;2.90;;
72235;SDS011;60146;52.498;13.462;2023-07-31T04:30:32;4.60;;;2.50;;
72235;SDS011;60146;52.498;13.462;2023-07-31T04:32:58;5.90;;;3.17;;
72235;SDS011;60146;52.498;13.462;2023-07-31T04:35:23;4.10;;;2.60;;
72235;SDS011;60146;52.498;13.462;2023-07-31T04:37:48;4.90;;;2.70;;
72235;SDS011;60146;52.498;13.462;2023-07-31T04:40:14;6.43;;;3.10;;
72235;SDS011;60146;52.498;13.462;2023-07-31T04:42:40;6.93;;;2.80;;
72235;SDS011;60146;52.498;13.462;2023-07-31T04:45:06;5.33;;;2.50;;
72235;SDS011;60146;52.498;13.462;2023-07-31T04:47:32;5.30;;;2.67;;
72235;SDS011;60146;52.498;13.462;2023-07-31T04:49:58;7.27;;;2.83;;
72235;SDS011;60146;52.498;13.462;2023-07-31T04:52:23;5.00;;;2.50;;
72235;SDS011;60146;52.498;13.462;2023-07-31T04:54:48;6.63;;;2.60;;
72235;SDS011;60146;52.498;13.462;2023-07-31T04:57:14;10.33;;;2.60;;
72235;SDS011;60146;52.498;13.462;2023-07-31T04:59:39;5.93;;;2.70;;
72235;SDS011;60146;52.498;13.462;2023-07-31T05:02:04;5.13;;;2.50;;
72235;SDS011;60146;52.498;13.462;2023-07-31T05:04:30;6.47;;;2.60;;
72235;SDS011;60146;52.498;13.462;2023-07-31T05:06:55;6.27;;;2.80;;
72235;SDS011;60146;52.498;13.462;2023-07-31T05:09:20;7.80;;;2.50;;
72235;SDS011;60146;52.498;13.462;2023-07-31T05:11:46;6.70;;;2.53;;
72235;SDS011;60146;52.498;13.462;2023-07-31T05:14:11;9.97;;;2.50;;
72235;SDS011;60146;52.498;13.462;2023-07-31T05:16:36;5.10;;;2.10;;
72235;SDS011;60146;52.498;13.462;2023-07-31T05:19:02;4.07;;;2.10;;
72235;SDS011;60146;52.498;13.462;2023-07-31T05:21:27;5.03;;;2.23;;
72235;SDS011;60146;52.498;13.462;2023-07-31T05:23:53;4.10;;;2.20;;
72235;SDS011;60146;52.498;13.462;2023-07-31T05:26:18;4.80;;;2.00;;
72235;SDS011;60146;52.498;13.462;2023-07-31T05:28:43;4.03;;;2.20;;
72235;SDS011;60146;52.498;13.462;2023-07-31T05:31:09;8.37;;;2.57;;
72235;SDS011;60146;52.498;13.462;2023-07-31T05:33:34;5.17;;;2.43;;
72235;SDS011;60146;52.498;13.462;2023-07-31T05:35:59;4.73;;;2.20;;
72235;SDS011;60146;52.498;13.462;2023-07-31T05:38:25;6.23;;;2.10;;
72235;SDS011;60146;52.498;13.462;2023-07-31T05:40:50;6.70;;;2.20;;
72235;SDS011;60146;52.498;13.462;2023-07-31T05:43:15;5.90;;;2.57;;
72235;SDS011;60146;52.498;13.462;2023-07-31T05:45:44;4.40;;;2.10;;
72235;SDS011;60146;52.498;13.462;2023-07-31T05:48:09;6.70;;;2.30;;
72235;SDS011;60146;52.498;13.462;2023-07-31T05:50:34;6.40;;;2.27;;
72235;SDS011;60146;52.498;13.462;2023-07-31T05:53:00;4.67;;;2.10;;
72235;SDS011;60146;52.498;13.462;2023-07-31T05:55:25;7.33;;;2.37;;
72235;SDS011;60146;52.498;13.462;2023-07-31T05:57:54;4.00;;;2.23;;
72235;SDS011;60146;52.498;13.462;2023-07-31T06:00:19;5.63;;;2.07;;
72235;SDS011;60146;52.498;13.462;2023-07-31T06:02:45;6.80;;;2.13;;
72235;SDS011;60146;52.498;13.462;2023-07-31T06:05:12;4.13;;;1.90;;
72235;SDS011;60146;52.498;13.462;2023-07-31T06:07:37;3.43;;;1.80;;
72235;SDS011;60146;52.498;13.462;2023-07-31T06:10:02;4.83;;;2.27;;
72235;SDS011;60146;52.498;13.462;2023-07-31T06:12:29;6.37;;;2.17;;
72235;SDS011;60146;52.498;13.462;2023-07-31T06:14:58;3.63;;;2.10;;
72235;SDS011;60146;52.498;13.462;2023-07-31T06:17:23;6.57;;;1.77;;
72235;SDS011;60146;52.498;13.462;2023-07-31T06:19:49;3.40;;;1.97;;
72235;SDS011;60146;52.498;13.462;2023-07-31T06:22:15;7.63;;;2.07;;
72235;SDS011;60146;52.498;13.462;2023-07-31T06:24:40;4.57;;;1.90;;
72235;SDS011;60146;52.498;13.462;2023-07-31T06:27:06;4.03;;;1.97;;
72235;SDS011;60146;52.498;13.462;2023-07-31T06:29:31;7.30;;;2.17;;
72235;SDS011;60146;52.498;13.462;2023-07-31T06:31:57;6.03;;;2.23;;
72235;SDS011;60146;52.498;13.462;2023-07-31T06:34:23;6.33;;;2.13;;
72235;SDS011;60146;52.498;13.462;2023-07-31T06:36:49;6.00;;;2.00;;
72235;SDS011;60146;52.498;13.462;2023-07-31T06:39:14;7.07;;;2.10;;
72235;SDS011;60146;52.498;13.462;2023-07-31T06:41:39;4.67;;;2.13;;
72235;SDS011;60146;52.498;13.462;2023-07-31T06:44:05;8.40;;;2.40;;
72235;SDS011;60146;52.498;13.462;2023-07-31T06:46:30;5.83;;;2.10;;
72235;SDS011;60146;52.498;13.462;2023-07-31T06:48:56;4.37;;;2.10;;
72235;SDS011;60146;52.498;13.462;2023-07-31T06:51:21;7.77;;;2.20;;
72235;SDS011;60146;52.498;13.462;2023-07-31T06:53:46;4.93;;;1.80;;
72235;SDS011;60146;52.498;13.462;2023-07-31T06:56:12;4.90;;;2.07;;
72235;SDS011;60146;52.498;13.462;2023-07-31T06:58:37;4.63;;;1.67;;
72235;SDS011;60146;52.498;13.462;2023-07-31T07:01:03;3.03;;;1.90;;
72235;SDS011;60146;52.498;13.462;2023-07-31T07:03:28;4.40;;;1.80;;
72235;SDS011;60146;52.498;13.462;2023-07-31T07:05:54;6.43;;;1.75;;
72235;SDS011;60146;52.498;13.462;2023-07-31T07:08:19;4.50;;;1.70;;
72235;SDS011;60146;52.498;13.462;2023-07-31T07:10:44;4.53;;;1.80;;
72235;SDS011;60146;52.498;13.462;2023-07-31T07:13:09;6.37;;;1.73;;
72235;SDS011;60146;52.498;13.462;2023-07-31T07:15:35;8.07;;;1.90;;
72235;SDS011;60146;52.498;13.462;2023-07-31T07:18:00;4.10;;;1.73;;
72235;SDS011;60146;52.498;13.462;2023-07-31T07:20:25;4.50;;;1.80;;
72235;SDS011;60146;52.498;13.462;2023-07-31T07:22:51;5.87;;;2.00;;
72235;SDS011;60146;52.498;13.462;2023-07-31T07:25:16;3.77;;;1.73;;
72235;SDS011;60146;52.498;13.462;2023-07-31T07:27:42;5.03;;;1.90;;
72235;SDS011;60146;52.498;13.462;2023-07-31T07:30:07;5.73;;;1.97;;
72235;SDS011;60146;52.498;13.462;2023-07-31T07:32:33;6.07;;;2.67;;
72235;SDS011;60146;52.498;13.462;2023-07-31T07:34:59;3.10;;;1.70;;
72235;SDS011;60146;52.498;13.462;2023-07-31T07:37:24;4.45;;;1.60;;
72235;SDS011;60146;52.498;13.462;2023-07-31T07:39:49;3.40;;;1.80;;
72235;SDS011;60146;52.498;13.462;2023-07-31T07:42:15;4.15;;;1.80;;
72235;SDS011;60146;52.498;13.462;2023-07-31T07:44:40;5.95;;;2.00;;
72235;SDS011;60146;52.498;13.462;2023-07-31T07:47:05;3.50;;;1.70;;
72235;SDS011;60146;52.498;13.462;2023-07-31T07:49:32;5.07;;;2.10;;
72235;SDS011;60146;52.498;13.462;2023-07-31T07:52:02;3.88;;;1.60;;
72235;SDS011;60146;52.498;13.462;2023-07-31T07:54:31;6.63;;;1.85;;
72235;SDS011;60146;52.498;13.462;2023-07-31T07:56:56;4.63;;;2.15;;
72235;SDS011;60146;52.498;13.462;2023-07-31T07:59:21;5.03;;;1.95;;
72235;SDS011;60146;52.498;13.462;2023-07-31T08:01:47;3.97;;;1.92;;
72235;SDS011;60146;52.498;13.462;2023-07-31T08:04:12;3.92;;;2.03;;
72235;SDS011;60146;52.498;13.462;2023-07-31T08:06:38;4.75;;;1.80;;
72235;SDS011;60146;52.498;13.462;2023-07-31T08:09:03;6.97;;;1.70;;
72235;SDS011;60146;52.498;13.462;2023-07-31T08:11:31;3.00;;;1.50;;
72235;SDS011;60146;52.498;13.462;2023-07-31T08:13:57;2.63;;;1.33;;
72235;SDS011;60146;52.498;13.462;2023-07-31T08:16:22;2.00;;;1.55;;
72235;SDS011;60146;52.498;13.462;2023-07-31T08:18:48;4.40;;;1.60;;
72235;SDS011;60146;52.498;13.462;2023-07-31T08:21:13;2.67;;;1.60;;
72235;SDS011;60146;52.498;13.462;2023-07-31T08:23:40;4.57;;;1.65;;
72235;SDS011;60146;52.498;13.462;2023-07-31T08:26:05;2.97;;;1.30;;
72235;SDS011;60146;52.498;13.462;2023-07-31T08:28:31;3.03;;;1.50;;
72235;SDS011;60146;52.498;13.462;2023-07-31T08:30:56;2.22;;;1.30;;
72235;SDS011;60146;52.498;13.462;2023-07-31T08:33:21;2.45;;;1.40;;
72235;SDS011;60146;52.498;13.462;2023-07-31T08:35:47;2.40;;;1.48;;
72235;SDS011;60146;52.498;13.462;2023-07-31T08:38:13;4.13;;;1.65;;
72235;SDS011;60146;52.498;13.462;2023-07-31T08:40:38;2.15;;;1.83;;
72235;SDS011;60146;52.498;13.462;2023-07-31T08:43:04;2.92;;;1.60;;
72235;SDS011;60146;52.498;13.462;2023-07-31T08:45:30;4.07;;;1.67;;
72235;SDS011;60146;52.498;13.462;2023-07-31T08:47:56;3.30;;;1.75;;
72235;SDS011;60146;52.498;13.462;2023-07-31T08:50:24;3.97;;;1.63;;
72235;SDS011;60146;52.498;13.462;2023-07-31T08:52:51;2.47;;;1.55;;
72235;SDS011;60146;52.498;13.462;2023-07-31T08:55:17;2.67;;;1.40;;
72235;SDS011;60146;52.498;13.462;2023-07-31T08:57:48;3.53;;;1.50;;
72235;SDS011;60146;52.498;13.462;2023-07-31T09:00:15;6.47;;;1.60;;
72235;SDS011;60146;52.498;13.462;2023-07-31T09:02:44;6.85;;;1.63;;
72235;SDS011;60146;52.498;13.462;2023-07-31T09:05:11;3.92;;;1.58;;
72235;SDS011;60146;52.498;13.462;2023-07-31T09:07:37;3.53;;;1.58;;
72235;SDS011;60146;52.498;13.462;2023-07-31T09:10:03;3.45;;;1.52;;
72235;SDS011;60146;52.498;13.462;2023-07-31T09:12:29;4.13;;;1.50;;
72235;SDS011;60146;52.498;13.462;2023-07-31T09:14:59;3.05;;;1.30;;
72235;SDS011;60146;52.498;13.462;2023-07-31T09:17:32;2.92;;;1.60;;
72235;SDS011;60146;52.498;13.462;2023-07-31T09:20:15;3.33;;;1.60;;
72235;SDS011;60146;52.498;13.462;2023-07-31T09:22:45;4.93;;;1.63;;
72235;SDS011;60146;52.498;13.462;2023-07-31T09:30:12;3.40;;;1.27;;
72235;SDS011;60146;52.498;13.462;2023-07-31T09:32:38;3.33;;;1.42;;
72235;SDS011;60146;52.498;13.462;2023-07-31T09:35:13;2.00;;;1.00;;
72235;SDS011;60146;52.498;13.462;2023-07-31T09:37:50;3.88;;;1.05;;
72235;SDS011;60146;52.498;13.462;2023-07-31T09:40:35;2.55;;;1.02;;
72235;SDS011;60146;52.498;13.462;2023-07-31T09:43:03;2.22;;;0.90;;
72235;SDS011;60146;52.498;13.462;2023-07-31T09:45:47;3.57;;;0.90;;
72235;SDS011;60146;52.498;13.462;2023-07-31T09:48:17;1.60;;;0.80;;
72235;SDS011;60146;52.498;13.462;2023-07-31T09:53:10;2.42;;;0.90;;
72235;SDS011;60146;52.498;13.462;2023-07-31T09:55:36;1.80;;;0.80;;
72235;SDS011;60146;52.498;13.462;2023-07-31T09:58:06;2.65;;;0.90;;
72235;SDS011;60146;52.498;13.462;2023-07-31T10:00:33;1.60;;;1.00;;
72235;SDS011;60146;52.498;13.462;2023-07-31T10:02:59;1.58;;;1.05;;
72235;SDS011;60146;52.498;13.462;2023-07-31T10:05:28;3.25;;;1.20;;
72235;SDS011;60146;52.498;13.462;2023-07-31T10:07:57;1.83;;;1.10;;
72235;SDS011;60146;52.498;13.462;2023-07-31T10:10:22;4.28;;;1.40;;
72235;SDS011;60146;52.498;13.462;2023-07-31T10:12:48;4.53;;;1.63;;
72235;SDS011;60146;52.498;13.462;2023-07-31T10:15:17;1.90;;;1.50;;
72235;SDS011;60146;52.498;13.462;2023-07-31T10:17:43;4.57;;;1.80;;
72235;SDS011;60146;52.498;13.462;2023-07-31T10:20:09;3.78;;;1.80;;
72235;SDS011;60146;52.498;13.462;2023-07-31T10:22:35;4.80;;;1.90;;
72235;SDS011;60146;52.498;13.462;2023-07-31T10:25:01;4.50;;;1.85;;
72235;SDS011;60146;52.498;13.462;2023-07-31T10:27:27;5.22;;;2.10;;
72235;SDS011;60146;52.498;13.462;2023-07-31T10:29:54;5.80;;;2.40;;
72235;SDS011;60146;52.498;13.462;2023-07-31T10:32:20;5.32;;;2.22;;
72235;SDS011;60146;52.498;13.462;2023-07-31T10:34:48;4.45;;;2.03;;
72235;SDS011;60146;52.498;13.462;2023-07-31T10:37:25;7.63;;;2.40;;
72235;SDS011;60146;52.498;13.462;2023-07-31T10:42:27;9.00;;;2.17;;
72235;SDS011;60146;52.498;13.462;2023-07-31T10:47:51;4.95;;;2.60;;
72235;SDS011;60146;52.498;13.462;2023-07-31T10:50:24;5.85;;;2.45;;
72235;SDS011;60146;52.498;13.462;2023-07-31T10:52:53;5.47;;;2.60;;
72235;SDS011;60146;52.498;13.462;2023-07-31T10:55:30;6.93;;;2.20;;
72235;SDS011;60146;52.498;13.462;2023-07-31T10:57:58;3.85;;;1.65;;
72235;SDS011;60146;52.498;13.462;2023-07-31T11:00:31;3.83;;;2.10;;
72235;SDS011;60146;52.498;13.462;2023-07-31T11:08:29;9.38;;;2.30;;
72235;SDS011;60146;52.498;13.462;2023-07-31T11:13:27;4.80;;;1.92;;
72235;SDS011;60146;52.498;13.462;2023-07-31T11:15:53;6.85;;;2.08;;
72235;SDS011;60146;52.498;13.462;2023-07-31T11:18:18;3.35;;;1.60;;
72235;SDS011;60146;52.498;13.462;2023-07-31T11:20:44;3.85;;;1.90;;
72235;SDS011;60146;52.498;13.462;2023-07-31T11:23:10;5.22;;;2.15;;
72235;SDS011;60146;52.498;13.462;2023-07-31T11:25:36;4.18;;;1.73;;
72235;SDS011;60146;52.498;13.462;2023-07-31T11:28:07;3.45;;;1.92;;
72235;SDS011;60146;52.498;13.462;2023-07-31T11:30:36;5.15;;;2.05;;
72235;SDS011;60146;52.498;13.462;2023-07-31T11:33:02;6.70;;;2.00;;
72235;SDS011;60146;52.498;13.462;2023-07-31T11:35:29;3.35;;;1.70;;
72235;SDS011;60146;52.498;13.462;2023-07-31T11:37:56;3.85;;;1.73;;
72235;SDS011;60146;52.498;13.462;2023-07-31T11:40:21;3.88;;;1.90;;
72235;SDS011;60146;52.498;13.462;2023-07-31T11:42:47;2.95;;;1.60;;
72235;SDS011;60146;52.498;13.462;2023-07-31T11:45:12;4.38;;;1.92;;
72235;SDS011;60146;52.498;13.462;2023-07-31T11:47:38;5.65;;;1.90;;
72235;SDS011;60146;52.498;13.462;2023-07-31T11:50:04;5.93;;;2.00;;
72235;SDS011;60146;52.498;13.462;2023-07-31T11:52:37;5.55;;;1.83;;
72235;SDS011;60146;52.498;13.462;2023-07-31T11:55:09;5.38;;;1.77;;
72235;SDS011;60146;52.498;13.462;2023-07-31T11:57:35;4.03;;;1.80;;
72235;SDS011;60146;52.498;13.462;2023-07-31T12:00:03;4.90;;;2.10;;
72235;SDS011;60146;52.498;13.462;2023-07-31T12:02:29;4.05;;;1.85;;
72235;SDS011;60146;52.498;13.462;2023-07-31T12:04:57;3.83;;;1.80;;
72235;SDS011;60146;52.498;13.462;2023-07-31T12:07:23;6.32;;;1.92;;
72235;SDS011;60146;52.498;13.462;2023-07-31T12:09:55;2.75;;;1.75;;
72235;SDS011;60146;52.498;13.462;2023-07-31T12:12:22;5.18;;;1.80;;
72235;SDS011;60146;52.498;13.462;2023-07-31T12:14:48;3.08;;;1.70;;
72235;SDS011;60146;52.498;13.462;2023-07-31T12:17:15;4.25;;;1.92;;
72235;SDS011;60146;52.498;13.462;2023-07-31T12:19:41;3.38;;;1.95;;
72235;SDS011;60146;52.498;13.462;2023-07-31T12:22:13;4.22;;;1.90;;
72235;SDS011;60146;52.498;13.462;2023-07-31T12:24:41;4.55;;;1.70;;
72235;SDS011;60146;52.498;13.462;2023-07-31T12:27:13;3.55;;;1.67;;
72235;SDS011;60146;52.498;13.462;2023-07-31T12:29:41;3.50;;;1.85;;
72235;SDS011;60146;52.498;13.462;2023-07-31T12:32:21;2.15;;;1.45;;
72235;SDS011;60146;52.498;13.462;2023-07-31T12:34:47;5.75;;;1.70;;
72235;SDS011;60146;52.498;13.462;2023-07-31T12:37:13;3.17;;;1.60;;
72235;SDS011;60146;52.498;13.462;2023-07-31T12:39:38;2.80;;;1.85;;
72235;SDS011;60146;52.498;13.462;2023-07-31T12:42:04;3.17;;;1.70;;
72235;SDS011;60146;52.498;13.462;2023-07-31T12:44:30;3.45;;;1.67;;
72235;SDS011;60146;52.498;13.462;2023-07-31T12:46:55;4.47;;;1.73;;
72235;SDS011;60146;52.498;13.462;2023-07-31T12:49:20;7.07;;;1.92;;
72235;SDS011;60146;52.498;13.462;2023-07-31T12:51:46;3.45;;;1.85;;
72235;SDS011;60146;52.498;13.462;2023-07-31T12:54:11;2.67;;;1.40;;
72235;SDS011;60146;52.498;13.462;2023-07-31T12:56:37;4.47;;;1.63;;
72235;SDS011;60146;52.498;13.462;2023-07-31T12:59:02;2.45;;;1.30;;
72235;SDS011;60146;52.498;13.462;2023-07-31T13:01:28;3.25;;;1.20;;
72235;SDS011;60146;52.498;13.462;2023-07-31T13:03:53;2.42;;;1.30;;
72235;SDS011;60146;52.498;13.462;2023-07-31T13:06:19;2.88;;;1.13;;
72235;SDS011;60146;52.498;13.462;2023-07-31T13:08:44;2.88;;;1.35;;
72235;SDS011;60146;52.498;13.462;2023-07-31T13:11:10;2.63;;;1.35;;
72235;SDS011;60146;52.498;13.462;2023-07-31T13:13:35;3.00;;;1.27;;
72235;SDS011;60146;52.498;13.462;2023-07-31T13:16:01;2.38;;;1.20;;
72235;SDS011;60146;52.498;13.462;2023-07-31T13:18:26;1.55;;;1.10;;
72235;SDS011;60146;52.498;13.462;2023-07-31T13:20:52;2.85;;;1.38;;
72235;SDS011;60146;52.498;13.462;2023-07-31T13:23:17;4.82;;;1.48;;
72235;SDS011;60146;52.498;13.462;2023-07-31T13:25:42;2.42;;;1.40;;
72235;SDS011;60146;52.498;13.462;2023-07-31T13:28:08;3.45;;;1.73;;
72235;SDS011;60146;52.498;13.462;2023-07-31T13:30:33;3.22;;;1.52;;
72235;SDS011;60146;52.498;13.462;2023-07-31T13:32:59;5.07;;;1.55;;
72235;SDS011;60146;52.498;13.462;2023-07-31T13:35:24;3.45;;;1.70;;
72235;SDS011;60146;52.498;13.462;2023-07-31T13:37:50;5.00;;;1.98;;
72235;SDS011;60146;52.498;13.462;2023-07-31T13:40:15;4.05;;;1.60;;
72235;SDS011;60146;52.498;13.462;2023-07-31T13:42:40;4.97;;;1.85;;
72235;SDS011;60146;52.498;13.462;2023-07-31T13:45:06;1.88;;;1.30;;
72235;SDS011;60146;52.498;13.462;2023-07-31T13:47:31;3.38;;;1.92;;
72235;SDS011;60146;52.498;13.462;2023-07-31T13:49:57;4.93;;;2.05;;
72235;SDS011;60146;52.498;13.462;2023-07-31T13:52:22;5.25;;;1.67;;
72235;SDS011;60146;52.498;13.462;2023-07-31T13:54:48;2.38;;;1.50;;
72235;SDS011;60146;52.498;13.462;2023-07-31T13:57:13;5.05;;;1.90;;
72235;SDS011;60146;52.498;13.462;2023-07-31T13:59:38;3.38;;;1.70;;
72235;SDS011;60146;52.498;13.462;2023-07-31T14:02:04;3.60;;;1.80;;
72235;SDS011;60146;52.498;13.462;2023-07-31T14:04:29;4.80;;;1.85;;
72235;SDS011;60146;52.498;13.462;2023-07-31T14:06:55;5.63;;;1.73;;
72235;SDS011;60146;52.498;13.462;2023-07-31T14:09:21;3.63;;;1.80;;
72235;SDS011;60146;52.498;13.462;2023-07-31T14:11:47;3.92;;;1.90;;
72235;SDS011;60146;52.498;13.462;2023-07-31T14:14:12;3.42;;;2.03;;
72235;SDS011;60146;52.498;13.462;2023-07-31T14:16:38;4.75;;;2.20;;
72235;SDS011;60146;52.498;13.462;2023-07-31T14:19:04;4.85;;;2.00;;
72235;SDS011;60146;52.498;13.462;2023-07-31T14:21:29;4.03;;;1.80;;
72235;SDS011;60146;52.498;13.462;2023-07-31T14:23:54;4.38;;;1.80;;
72235;SDS011;60146;52.498;13.462;2023-07-31T14:26:20;5.25;;;1.70;;
72235;SDS011;60146;52.498;13.462;2023-07-31T14:28:45;4.00;;;1.83;;
72235;SDS011;60146;52.498;13.462;2023-07-31T14:31:12;5.75;;;2.05;;
72235;SDS011;60146;52.498;13.462;2023-07-31T14:33:37;3.60;;;2.05;;
72235;SDS011;60146;52.498;13.462;2023-07-31T14:36:03;4.75;;;1.85;;
72235;SDS011;60146;52.498;13.462;2023-07-31T14:38:28;3.53;;;2.00;;
72235;SDS011;60146;52.498;13.462;2023-07-31T14:40:54;5.30;;;2.00;;
72235;SDS011;60146;52.498;13.462;2023-07-31T14:43:19;6.57;;;1.98;;
72235;SDS011;60146;52.498;13.462;2023-07-31T14:45:44;4.32;;;1.92;;
72235;SDS011;60146;52.498;13.462;2023-07-31T14:48:11;3.50;;;1.73;;
72235;SDS011;60146;52.498;13.462;2023-07-31T14:50:37;5.53;;;1.75;;
72235;SDS011;60146;52.498;13.462;2023-07-31T14:53:02;4.22;;;2.00;;
72235;SDS011;60146;52.498;13.462;2023-07-31T14:55:27;3.38;;;1.70;;
72235;SDS011;60146;52.498;13.462;2023-07-31T14:57:53;2.70;;;1.60;;
72235;SDS011;60146;52.498;13.462;2023-07-31T15:00:18;3.10;;;1.90;;